sensor_id;sensor_type;location;lat;lon;timestamp;P1;durP1;ratioP1;P2;durP2;ratioP2
64816;SDS011;53289;45.602;11.904;2022-11-09T00:01:27;29.00;;;18.48;;
64816;SDS011;53289;45.602;11.904;2022-11-09T00:03:54;31.45;;;19.98;;
64816;SDS011;53289;45.602;11.904;2022-11-09T00:06:25;30.00;;;16.80;;
64816;SDS011;53289;45.602;11.904;2022-11-09T00:08:52;29.17;;;18.52;;
64816;SDS011;53289;45.602;11.904;2022-11-09T00:11:18;29.10;;;17.45;;
64816;SDS011;53289;45.602;11.904;2022-11-09T00:13:45;33.80;;;21.38;;
64816;SDS011;53289;45.602;11.904;2022-11-09T00:16:13;30.10;;;18.05;;
64816;SDS011;53289;45.602;11.904;2022-11-09T00:18:40;26.75;;;16.98;;
64816;SDS011;53289;45.602;11.904;2022-11-09T00:21:18;28.85;;;17.40;;
64816;SDS011;53289;45.602;11.904;2022-11-09T00:23:46;27.40;;;16.63;;
64816;SDS011;53289;45.602;11.904;2022-11-09T00:26:14;30.05;;;18.13;;
64816;SDS011;53289;45.602;11.904;2022-11-09T00:28:41;29.67;;;16.88;;
64816;SDS011;53289;45.602;11.904;2022-11-09T00:31:08;28.67;;;16.25;;
64816;SDS011;53289;45.602;11.904;2022-11-09T00:33:36;24.60;;;14.88;;
64816;SDS011;53289;45.602;11.904;2022-11-09T00:36:03;23.48;;;14.57;;
64816;SDS011;53289;45.602;11.904;2022-11-09T00:38:34;27.10;;;14.65;;
64816;SDS011;53289;45.602;11.904;2022-11-09T00:41:02;27.02;;;16.45;;
64816;SDS011;53289;45.602;11.904;2022-11-09T00:43:29;20.90;;;13.82;;
64816;SDS011;53289;45.602;11.904;2022-11-09T00:45:55;28.65;;;17.17;;
64816;SDS011;53289;45.602;11.904;2022-11-09T00:48:22;20.67;;;12.88;;
64816;SDS011;53289;45.602;11.904;2022-11-09T00:50:49;19.80;;;13.20;;
64816;SDS011;53289;45.602;11.904;2022-11-09T00:53:16;18.83;;;13.05;;
64816;SDS011;53289;45.602;11.904;2022-11-09T00:55:51;26.60;;;15.43;;
64816;SDS011;53289;45.602;11.904;2022-11-09T00:58:18;18.77;;;11.90;;
64816;SDS011;53289;45.602;11.904;2022-11-09T01:00:44;17.58;;;12.05;;
64816;SDS011;53289;45.602;11.904;2022-11-09T01:03:10;18.88;;;12.60;;
64816;SDS011;53289;45.602;11.904;2022-11-09T01:05:36;20.13;;;12.18;;
64816;SDS011;53289;45.602;11.904;2022-11-09T01:08:06;20.17;;;13.05;;
64816;SDS011;53289;45.602;11.904;2022-11-09T01:10:33;20.52;;;12.82;;
64816;SDS011;53289;45.602;11.904;2022-11-09T01:12:59;21.80;;;13.57;;
64816;SDS011;53289;45.602;11.904;2022-11-09T01:15:25;21.27;;;13.95;;
64816;SDS011;53289;45.602;11.904;2022-11-09T01:17:51;22.10;;;13.77;;
64816;SDS011;53289;45.602;11.904;2022-11-09T01:20:17;22.98;;;13.77;;
64816;SDS011;53289;45.602;11.904;2022-11-09T01:22:43;22.55;;;14.02;;
64816;SDS011;53289;45.602;11.904;2022-11-09T01:25:09;18.48;;;12.23;;
64816;SDS011;53289;45.602;11.904;2022-11-09T01:27:35;18.65;;;12.10;;
64816;SDS011;53289;45.602;11.904;2022-11-09T01:30:01;21.52;;;13.60;;
64816;SDS011;53289;45.602;11.904;2022-11-09T01:32:30;27.50;;;16.33;;
64816;SDS011;53289;45.602;11.904;2022-11-09T01:34:57;23.02;;;14.38;;
64816;SDS011;53289;45.602;11.904;2022-11-09T01:37:22;20.85;;;13.70;;
64816;SDS011;53289;45.602;11.904;2022-11-09T01:39:48;18.48;;;12.48;;
64816;SDS011;53289;45.602;11.904;2022-11-09T01:42:20;19.02;;;13.32;;
64816;SDS011;53289;45.602;11.904;2022-11-09T01:45:12;19.52;;;11.60;;
64816;SDS011;53289;45.602;11.904;2022-11-09T01:47:38;17.35;;;11.30;;
64816;SDS011;53289;45.602;11.904;2022-11-09T01:50:04;17.80;;;11.05;;
64816;SDS011;53289;45.602;11.904;2022-11-09T01:52:35;21.80;;;12.38;;
64816;SDS011;53289;45.602;11.904;2022-11-09T01:55:08;21.48;;;13.73;;
64816;SDS011;53289;45.602;11.904;2022-11-09T01:57:43;22.17;;;13.05;;
64816;SDS011;53289;45.602;11.904;2022-11-09T02:00:29;25.42;;;16.00;;
64816;SDS011;53289;45.602;11.904;2022-11-09T02:03:00;27.15;;;16.88;;
64816;SDS011;53289;45.602;11.904;2022-11-09T02:05:30;23.02;;;14.57;;
64816;SDS011;53289;45.602;11.904;2022-11-09T02:07:59;21.98;;;13.40;;
64816;SDS011;53289;45.602;11.904;2022-11-09T02:10:38;19.30;;;12.23;;
64816;SDS011;53289;45.602;11.904;2022-11-09T02:13:09;19.85;;;13.23;;
64816;SDS011;53289;45.602;11.904;2022-11-09T02:15:39;28.42;;;16.02;;
64816;SDS011;53289;45.602;11.904;2022-11-09T02:18:06;19.80;;;12.73;;
64816;SDS011;53289;45.602;11.904;2022-11-09T02:20:45;18.92;;;11.70;;
64816;SDS011;53289;45.602;11.904;2022-11-09T02:23:16;26.70;;;15.82;;
64816;SDS011;53289;45.602;11.904;2022-11-09T02:25:44;23.65;;;15.38;;
64816;SDS011;53289;45.602;11.904;2022-11-09T02:28:19;18.55;;;11.48;;
64816;SDS011;53289;45.602;11.904;2022-11-09T02:30:48;24.92;;;15.35;;
64816;SDS011;53289;45.602;11.904;2022-11-09T02:33:16;16.92;;;11.43;;
64816;SDS011;53289;45.602;11.904;2022-11-09T02:35:43;16.08;;;10.43;;
64816;SDS011;53289;45.602;11.904;2022-11-09T02:38:09;16.77;;;10.68;;
64816;SDS011;53289;45.602;11.904;2022-11-09T02:40:37;19.13;;;11.82;;
64816;SDS011;53289;45.602;11.904;2022-11-09T02:43:07;14.50;;;10.07;;
64816;SDS011;53289;45.602;11.904;2022-11-09T02:45:35;20.75;;;12.15;;
64816;SDS011;53289;45.602;11.904;2022-11-09T02:48:01;15.07;;;9.57;;
64816;SDS011;53289;45.602;11.904;2022-11-09T02:50:28;18.40;;;11.70;;
64816;SDS011;53289;45.602;11.904;2022-11-09T02:52:54;17.23;;;11.38;;
64816;SDS011;53289;45.602;11.904;2022-11-09T02:55:20;24.35;;;16.05;;
64816;SDS011;53289;45.602;11.904;2022-11-09T02:57:46;18.88;;;12.73;;
64816;SDS011;53289;45.602;11.904;2022-11-09T03:00:12;16.50;;;9.80;;
64816;SDS011;53289;45.602;11.904;2022-11-09T03:02:39;18.88;;;11.57;;
64816;SDS011;53289;45.602;11.904;2022-11-09T03:05:06;29.85;;;17.17;;
64816;SDS011;53289;45.602;11.904;2022-11-09T03:07:32;24.33;;;14.60;;
64816;SDS011;53289;45.602;11.904;2022-11-09T03:09:58;25.70;;;15.73;;
64816;SDS011;53289;45.602;11.904;2022-11-09T03:12:24;28.23;;;16.85;;
64816;SDS011;53289;45.602;11.904;2022-11-09T03:14:56;23.60;;;13.50;;
64816;SDS011;53289;45.602;11.904;2022-11-09T03:17:24;24.42;;;13.63;;
64816;SDS011;53289;45.602;11.904;2022-11-09T03:19:50;27.13;;;15.60;;
64816;SDS011;53289;45.602;11.904;2022-11-09T03:22:17;24.83;;;14.77;;
64816;SDS011;53289;45.602;11.904;2022-11-09T03:24:43;19.02;;;12.20;;
64816;SDS011;53289;45.602;11.904;2022-11-09T03:27:09;23.90;;;14.85;;
64816;SDS011;53289;45.602;11.904;2022-11-09T03:29:36;19.70;;;12.63;;
64816;SDS011;53289;45.602;11.904;2022-11-09T03:32:02;26.52;;;16.23;;
64816;SDS011;53289;45.602;11.904;2022-11-09T03:34:28;23.77;;;14.70;;
64816;SDS011;53289;45.602;11.904;2022-11-09T03:36:54;22.70;;;12.88;;
64816;SDS011;53289;45.602;11.904;2022-11-09T03:39:20;25.33;;;16.45;;
64816;SDS011;53289;45.602;11.904;2022-11-09T03:41:48;30.48;;;16.50;;
64816;SDS011;53289;45.602;11.904;2022-11-09T03:44:14;20.38;;;13.27;;
64816;SDS011;53289;45.602;11.904;2022-11-09T03:46:40;25.85;;;15.18;;
64816;SDS011;53289;45.602;11.904;2022-11-09T03:49:06;23.92;;;14.57;;
64816;SDS011;53289;45.602;11.904;2022-11-09T03:51:32;19.38;;;11.98;;
64816;SDS011;53289;45.602;11.904;2022-11-09T03:53:58;23.65;;;14.43;;
64816;SDS011;53289;45.602;11.904;2022-11-09T03:56:24;25.13;;;14.75;;
64816;SDS011;53289;45.602;11.904;2022-11-09T03:58:50;24.20;;;13.50;;
64816;SDS011;53289;45.602;11.904;2022-11-09T04:01:16;20.83;;;11.55;;
64816;SDS011;53289;45.602;11.904;2022-11-09T04:03:42;19.02;;;12.00;;
64816;SDS011;53289;45.602;11.904;2022-11-09T04:06:08;25.75;;;15.25;;
64816;SDS011;53289;45.602;11.904;2022-11-09T04:08:34;25.92;;;15.18;;
64816;SDS011;53289;45.602;11.904;2022-11-09T04:10:59;27.35;;;15.43;;
64816;SDS011;53289;45.602;11.904;2022-11-09T04:13:25;24.38;;;14.45;;
64816;SDS011;53289;45.602;11.904;2022-11-09T04:15:51;24.92;;;14.90;;
64816;SDS011;53289;45.602;11.904;2022-11-09T04:18:17;25.48;;;15.27;;
64816;SDS011;53289;45.602;11.904;2022-11-09T04:20:43;26.02;;;14.88;;
64816;SDS011;53289;45.602;11.904;2022-11-09T04:23:12;21.83;;;13.68;;
64816;SDS011;53289;45.602;11.904;2022-11-09T04:25:39;24.55;;;14.63;;
64816;SDS011;53289;45.602;11.904;2022-11-09T04:28:06;25.52;;;13.77;;
64816;SDS011;53289;45.602;11.904;2022-11-09T04:30:34;22.98;;;13.52;;
64816;SDS011;53289;45.602;11.904;2022-11-09T04:33:02;22.15;;;13.18;;
64816;SDS011;53289;45.602;11.904;2022-11-09T04:35:29;20.55;;;12.20;;
64816;SDS011;53289;45.602;11.904;2022-11-09T04:38:01;19.35;;;11.40;;
64816;SDS011;53289;45.602;11.904;2022-11-09T04:40:29;25.52;;;14.15;;
64816;SDS011;53289;45.602;11.904;2022-11-09T04:43:01;24.10;;;13.55;;
64816;SDS011;53289;45.602;11.904;2022-11-09T04:45:28;18.38;;;10.38;;
64816;SDS011;53289;45.602;11.904;2022-11-09T04:47:57;19.05;;;11.95;;
64816;SDS011;53289;45.602;11.904;2022-11-09T04:50:27;23.27;;;13.07;;
64816;SDS011;53289;45.602;11.904;2022-11-09T04:52:54;22.50;;;13.48;;
64816;SDS011;53289;45.602;11.904;2022-11-09T04:55:20;20.50;;;11.48;;
64816;SDS011;53289;45.602;11.904;2022-11-09T04:57:46;22.70;;;13.90;;
64816;SDS011;53289;45.602;11.904;2022-11-09T05:00:12;22.42;;;13.52;;
64816;SDS011;53289;45.602;11.904;2022-11-09T05:02:38;20.38;;;12.60;;
64816;SDS011;53289;45.602;11.904;2022-11-09T05:05:04;21.27;;;12.95;;
64816;SDS011;53289;45.602;11.904;2022-11-09T05:07:30;16.15;;;10.90;;
64816;SDS011;53289;45.602;11.904;2022-11-09T05:09:57;22.52;;;14.48;;
64816;SDS011;53289;45.602;11.904;2022-11-09T05:12:22;20.67;;;12.35;;
64816;SDS011;53289;45.602;11.904;2022-11-09T05:14:48;22.55;;;13.05;;
64816;SDS011;53289;45.602;11.904;2022-11-09T05:17:14;19.15;;;12.52;;
64816;SDS011;53289;45.602;11.904;2022-11-09T05:19:40;21.30;;;12.38;;
64816;SDS011;53289;45.602;11.904;2022-11-09T05:22:06;19.20;;;11.68;;
64816;SDS011;53289;45.602;11.904;2022-11-09T05:24:51;18.17;;;10.48;;
64816;SDS011;53289;45.602;11.904;2022-11-09T05:27:17;19.00;;;11.30;;
64816;SDS011;53289;45.602;11.904;2022-11-09T05:29:43;18.70;;;10.13;;
64816;SDS011;53289;45.602;11.904;2022-11-09T05:32:09;18.85;;;10.43;;
64816;SDS011;53289;45.602;11.904;2022-11-09T05:34:34;20.42;;;12.52;;
64816;SDS011;53289;45.602;11.904;2022-11-09T05:37:01;20.25;;;12.25;;
64816;SDS011;53289;45.602;11.904;2022-11-09T05:39:26;17.42;;;10.68;;
64816;SDS011;53289;45.602;11.904;2022-11-09T05:41:52;21.05;;;12.43;;
64816;SDS011;53289;45.602;11.904;2022-11-09T05:44:18;20.13;;;11.30;;
64816;SDS011;53289;45.602;11.904;2022-11-09T05:46:44;16.08;;;10.38;;
64816;SDS011;53289;45.602;11.904;2022-11-09T05:49:10;16.65;;;9.55;;
64816;SDS011;53289;45.602;11.904;2022-11-09T05:51:36;18.98;;;9.80;;
64816;SDS011;53289;45.602;11.904;2022-11-09T05:54:02;17.65;;;9.63;;
64816;SDS011;53289;45.602;11.904;2022-11-09T05:56:28;14.50;;;9.38;;
64816;SDS011;53289;45.602;11.904;2022-11-09T05:58:54;16.52;;;8.80;;
64816;SDS011;53289;45.602;11.904;2022-11-09T06:01:21;17.23;;;10.63;;
64816;SDS011;53289;45.602;11.904;2022-11-09T06:03:47;13.52;;;8.65;;
64816;SDS011;53289;45.602;11.904;2022-11-09T06:06:14;15.45;;;9.25;;
64816;SDS011;53289;45.602;11.904;2022-11-09T06:08:40;15.85;;;10.18;;
64816;SDS011;53289;45.602;11.904;2022-11-09T06:11:08;15.52;;;9.57;;
64816;SDS011;53289;45.602;11.904;2022-11-09T06:13:35;15.95;;;10.50;;
64816;SDS011;53289;45.602;11.904;2022-11-09T06:16:03;18.55;;;9.90;;
64816;SDS011;53289;45.602;11.904;2022-11-09T06:18:30;17.17;;;11.38;;
64816;SDS011;53289;45.602;11.904;2022-11-09T06:20:58;18.73;;;12.18;;
64816;SDS011;53289;45.602;11.904;2022-11-09T06:23:26;15.43;;;10.57;;
64816;SDS011;53289;45.602;11.904;2022-11-09T06:25:56;18.25;;;10.40;;
64816;SDS011;53289;45.602;11.904;2022-11-09T06:28:22;15.13;;;10.15;;
64816;SDS011;53289;45.602;11.904;2022-11-09T06:30:49;19.05;;;11.07;;
64816;SDS011;53289;45.602;11.904;2022-11-09T06:33:14;17.15;;;9.45;;
64816;SDS011;53289;45.602;11.904;2022-11-09T06:35:40;19.27;;;11.95;;
64816;SDS011;53289;45.602;11.904;2022-11-09T06:38:07;17.92;;;12.00;;
64816;SDS011;53289;45.602;11.904;2022-11-09T06:40:35;19.50;;;11.90;;
64816;SDS011;53289;45.602;11.904;2022-11-09T06:43:01;19.13;;;11.13;;
64816;SDS011;53289;45.602;11.904;2022-11-09T06:45:28;13.65;;;9.30;;
64816;SDS011;53289;45.602;11.904;2022-11-09T06:47:55;15.52;;;9.57;;
64816;SDS011;53289;45.602;11.904;2022-11-09T06:50:22;17.73;;;10.73;;
64816;SDS011;53289;45.602;11.904;2022-11-09T06:52:49;16.98;;;9.00;;
64816;SDS011;53289;45.602;11.904;2022-11-09T06:55:15;18.02;;;11.52;;
64816;SDS011;53289;45.602;11.904;2022-11-09T06:57:41;17.20;;;10.35;;
64816;SDS011;53289;45.602;11.904;2022-11-09T07:00:07;16.00;;;10.25;;
64816;SDS011;53289;45.602;11.904;2022-11-09T07:02:34;18.50;;;12.55;;
64816;SDS011;53289;45.602;11.904;2022-11-09T07:05:01;21.38;;;15.95;;
64816;SDS011;53289;45.602;11.904;2022-11-09T07:07:27;21.67;;;13.10;;
64816;SDS011;53289;45.602;11.904;2022-11-09T07:09:52;15.02;;;10.35;;
64816;SDS011;53289;45.602;11.904;2022-11-09T07:12:19;17.48;;;10.48;;
64816;SDS011;53289;45.602;11.904;2022-11-09T07:14:45;15.02;;;9.65;;
64816;SDS011;53289;45.602;11.904;2022-11-09T07:17:11;14.60;;;9.02;;
64816;SDS011;53289;45.602;11.904;2022-11-09T07:19:37;13.50;;;8.68;;
64816;SDS011;53289;45.602;11.904;2022-11-09T07:22:03;14.98;;;9.30;;
64816;SDS011;53289;45.602;11.904;2022-11-09T07:24:29;14.73;;;10.05;;
64816;SDS011;53289;45.602;11.904;2022-11-09T07:26:55;15.07;;;9.05;;
64816;SDS011;53289;45.602;11.904;2022-11-09T07:29:21;14.65;;;8.20;;
64816;SDS011;53289;45.602;11.904;2022-11-09T07:31:47;18.17;;;10.50;;
64816;SDS011;53289;45.602;11.904;2022-11-09T07:34:13;12.63;;;8.35;;
64816;SDS011;53289;45.602;11.904;2022-11-09T07:36:39;11.82;;;8.30;;
64816;SDS011;53289;45.602;11.904;2022-11-09T07:39:05;12.80;;;8.88;;
64816;SDS011;53289;45.602;11.904;2022-11-09T07:41:31;13.23;;;8.38;;
64816;SDS011;53289;45.602;11.904;2022-11-09T07:43:57;13.27;;;7.63;;
64816;SDS011;53289;45.602;11.904;2022-11-09T07:46:23;14.73;;;8.85;;
64816;SDS011;53289;45.602;11.904;2022-11-09T07:48:49;15.05;;;9.85;;
64816;SDS011;53289;45.602;11.904;2022-11-09T07:51:15;13.50;;;8.68;;
64816;SDS011;53289;45.602;11.904;2022-11-09T07:53:41;17.67;;;10.55;;
64816;SDS011;53289;45.602;11.904;2022-11-09T07:56:07;16.02;;;9.18;;
64816;SDS011;53289;45.602;11.904;2022-11-09T07:58:33;13.60;;;8.95;;
64816;SDS011;53289;45.602;11.904;2022-11-09T08:01:01;16.20;;;9.88;;
64816;SDS011;53289;45.602;11.904;2022-11-09T08:03:32;16.67;;;9.23;;
64816;SDS011;53289;45.602;11.904;2022-11-09T08:05:58;19.98;;;10.77;;
64816;SDS011;53289;45.602;11.904;2022-11-09T08:08:24;17.27;;;10.02;;
64816;SDS011;53289;45.602;11.904;2022-11-09T08:10:50;18.02;;;11.27;;
64816;SDS011;53289;45.602;11.904;2022-11-09T08:13:17;14.15;;;9.75;;
64816;SDS011;53289;45.602;11.904;2022-11-09T08:15:44;17.17;;;9.52;;
64816;SDS011;53289;45.602;11.904;2022-11-09T08:18:13;10.77;;;7.38;;
64816;SDS011;53289;45.602;11.904;2022-11-09T08:20:41;14.30;;;8.68;;
64816;SDS011;53289;45.602;11.904;2022-11-09T08:23:11;12.85;;;8.13;;
64816;SDS011;53289;45.602;11.904;2022-11-09T08:25:38;17.63;;;8.57;;
64816;SDS011;53289;45.602;11.904;2022-11-09T08:28:05;11.25;;;7.20;;
64816;SDS011;53289;45.602;11.904;2022-11-09T08:30:31;15.38;;;9.68;;
64816;SDS011;53289;45.602;11.904;2022-11-09T08:32:57;11.77;;;7.97;;
64816;SDS011;53289;45.602;11.904;2022-11-09T08:35:25;12.15;;;7.45;;
64816;SDS011;53289;45.602;11.904;2022-11-09T08:37:51;12.68;;;8.05;;
64816;SDS011;53289;45.602;11.904;2022-11-09T08:40:22;22.10;;;9.40;;
64816;SDS011;53289;45.602;11.904;2022-11-09T08:42:50;19.60;;;10.25;;
64816;SDS011;53289;45.602;11.904;2022-11-09T08:45:17;16.52;;;10.00;;
64816;SDS011;53289;45.602;11.904;2022-11-09T08:47:43;14.60;;;9.80;;
64816;SDS011;53289;45.602;11.904;2022-11-09T08:50:11;14.07;;;8.57;;
64816;SDS011;53289;45.602;11.904;2022-11-09T08:52:41;15.57;;;9.05;;
64816;SDS011;53289;45.602;11.904;2022-11-09T08:55:07;16.13;;;9.50;;
64816;SDS011;53289;45.602;11.904;2022-11-09T08:57:33;16.48;;;10.23;;
64816;SDS011;53289;45.602;11.904;2022-11-09T08:59:59;15.13;;;8.43;;
64816;SDS011;53289;45.602;11.904;2022-11-09T09:02:25;14.90;;;10.13;;
64816;SDS011;53289;45.602;11.904;2022-11-09T09:04:51;15.45;;;10.05;;
64816;SDS011;53289;45.602;11.904;2022-11-09T09:07:17;14.27;;;9.07;;
64816;SDS011;53289;45.602;11.904;2022-11-09T09:09:43;14.63;;;8.95;;
64816;SDS011;53289;45.602;11.904;2022-11-09T09:12:09;14.95;;;9.57;;
64816;SDS011;53289;45.602;11.904;2022-11-09T09:14:35;19.23;;;10.88;;
64816;SDS011;53289;45.602;11.904;2022-11-09T09:17:01;17.27;;;10.35;;
64816;SDS011;53289;45.602;11.904;2022-11-09T09:19:27;17.35;;;10.75;;
64816;SDS011;53289;45.602;11.904;2022-11-09T09:21:53;19.77;;;12.00;;
64816;SDS011;53289;45.602;11.904;2022-11-09T09:24:19;20.90;;;13.32;;
64816;SDS011;53289;45.602;11.904;2022-11-09T09:26:46;18.83;;;13.05;;
64816;SDS011;53289;45.602;11.904;2022-11-09T09:29:12;20.88;;;14.30;;
64816;SDS011;53289;45.602;11.904;2022-11-09T09:31:39;19.73;;;12.15;;
64816;SDS011;53289;45.602;11.904;2022-11-09T09:34:05;21.95;;;13.30;;
64816;SDS011;53289;45.602;11.904;2022-11-09T09:36:32;22.45;;;13.63;;
64816;SDS011;53289;45.602;11.904;2022-11-09T09:39:00;22.38;;;13.43;;
64816;SDS011;53289;45.602;11.904;2022-11-09T09:44:21;26.25;;;13.43;;
64816;SDS011;53289;45.602;11.904;2022-11-09T09:46:51;18.77;;;12.43;;
64816;SDS011;53289;45.602;11.904;2022-11-09T09:49:28;14.85;;;10.13;;
64816;SDS011;53289;45.602;11.904;2022-11-09T09:52:00;19.30;;;12.38;;
64816;SDS011;53289;45.602;11.904;2022-11-09T09:54:48;20.85;;;11.88;;
64816;SDS011;53289;45.602;11.904;2022-11-09T09:57:32;21.33;;;10.80;;
64816;SDS011;53289;45.602;11.904;2022-11-09T10:00:01;20.20;;;10.40;;
64816;SDS011;53289;45.602;11.904;2022-11-09T10:02:33;21.02;;;11.45;;
64816;SDS011;53289;45.602;11.904;2022-11-09T10:05:01;20.85;;;11.18;;
64816;SDS011;53289;45.602;11.904;2022-11-09T10:07:36;18.15;;;9.35;;
64816;SDS011;53289;45.602;11.904;2022-11-09T10:15:32;18.92;;;9.13;;
64816;SDS011;53289;45.602;11.904;2022-11-09T10:26:18;18.45;;;10.07;;
64816;SDS011;53289;45.602;11.904;2022-11-09T10:28:57;17.80;;;9.85;;
64816;SDS011;53289;45.602;11.904;2022-11-09T10:31:29;20.27;;;10.02;;
64816;SDS011;53289;45.602;11.904;2022-11-09T10:34:02;19.00;;;10.13;;
64816;SDS011;53289;45.602;11.904;2022-11-09T10:37:02;21.55;;;10.90;;
64816;SDS011;53289;45.602;11.904;2022-11-09T10:39:45;19.25;;;11.13;;
64816;SDS011;53289;45.602;11.904;2022-11-09T10:42:17;24.30;;;12.50;;
64816;SDS011;53289;45.602;11.904;2022-11-09T10:44:43;23.50;;;12.68;;
64816;SDS011;53289;45.602;11.904;2022-11-09T10:47:13;17.25;;;9.80;;
64816;SDS011;53289;45.602;11.904;2022-11-09T10:49:41;22.42;;;12.77;;
64816;SDS011;53289;45.602;11.904;2022-11-09T10:55:16;17.23;;;10.18;;
64816;SDS011;53289;45.602;11.904;2022-11-09T10:57:54;18.65;;;10.40;;
64816;SDS011;53289;45.602;11.904;2022-11-09T11:00:25;23.77;;;13.13;;
64816;SDS011;53289;45.602;11.904;2022-11-09T11:02:52;25.55;;;13.40;;
64816;SDS011;53289;45.602;11.904;2022-11-09T11:05:21;17.45;;;10.57;;
64816;SDS011;53289;45.602;11.904;2022-11-09T11:07:49;29.10;;;15.65;;
64816;SDS011;53289;45.602;11.904;2022-11-09T11:15:17;18.45;;;11.20;;
64816;SDS011;53289;45.602;11.904;2022-11-09T11:17:50;18.23;;;11.10;;
64816;SDS011;53289;45.602;11.904;2022-11-09T11:22:50;21.63;;;12.07;;
64816;SDS011;53289;45.602;11.904;2022-11-09T11:25:37;24.40;;;14.40;;
64816;SDS011;53289;45.602;11.904;2022-11-09T11:28:47;26.67;;;16.88;;
64816;SDS011;53289;45.602;11.904;2022-11-09T11:31:17;22.38;;;13.68;;
64816;SDS011;53289;45.602;11.904;2022-11-09T11:33:45;28.55;;;16.40;;
64816;SDS011;53289;45.602;11.904;2022-11-09T11:50:10;25.80;;;14.75;;
64816;SDS011;53289;45.602;11.904;2022-11-09T11:58:14;28.95;;;16.45;;
64816;SDS011;53289;45.602;11.904;2022-11-09T12:00:54;27.45;;;16.05;;
64816;SDS011;53289;45.602;11.904;2022-11-09T12:03:53;31.27;;;19.13;;
64816;SDS011;53289;45.602;11.904;2022-11-09T12:06:45;25.15;;;13.80;;
64816;SDS011;53289;45.602;11.904;2022-11-09T12:17:37;32.75;;;18.80;;
64816;SDS011;53289;45.602;11.904;2022-11-09T12:20:31;37.65;;;21.13;;
64816;SDS011;53289;45.602;11.904;2022-11-09T12:26:42;31.02;;;17.90;;
64816;SDS011;53289;45.602;11.904;2022-11-09T12:29:34;36.33;;;19.50;;
64816;SDS011;53289;45.602;11.904;2022-11-09T12:34:45;32.35;;;19.15;;
64816;SDS011;53289;45.602;11.904;2022-11-09T12:40:24;33.83;;;16.77;;
64816;SDS011;53289;45.602;11.904;2022-11-09T12:43:04;28.95;;;15.20;;
64816;SDS011;53289;45.602;11.904;2022-11-09T12:45:39;33.28;;;18.98;;
64816;SDS011;53289;45.602;11.904;2022-11-09T12:50:53;30.50;;;17.20;;
64816;SDS011;53289;45.602;11.904;2022-11-09T12:53:21;31.73;;;19.13;;
64816;SDS011;53289;45.602;11.904;2022-11-09T12:56:03;31.52;;;15.43;;
64816;SDS011;53289;45.602;11.904;2022-11-09T12:58:43;24.35;;;14.38;;
64816;SDS011;53289;45.602;11.904;2022-11-09T13:01:10;23.75;;;13.52;;
64816;SDS011;53289;45.602;11.904;2022-11-09T13:03:39;28.30;;;15.93;;
64816;SDS011;53289;45.602;11.904;2022-11-09T13:06:24;29.60;;;16.08;;
64816;SDS011;53289;45.602;11.904;2022-11-09T13:09:02;29.45;;;16.60;;
64816;SDS011;53289;45.602;11.904;2022-11-09T13:11:36;34.28;;;20.10;;
64816;SDS011;53289;45.602;11.904;2022-11-09T13:16:47;23.95;;;14.25;;
64816;SDS011;53289;45.602;11.904;2022-11-09T13:22:01;26.48;;;16.42;;
64816;SDS011;53289;45.602;11.904;2022-11-09T13:24:59;23.05;;;13.35;;
64816;SDS011;53289;45.602;11.904;2022-11-09T13:30:36;22.38;;;13.38;;
64816;SDS011;53289;45.602;11.904;2022-11-09T13:41:45;23.08;;;13.93;;
64816;SDS011;53289;45.602;11.904;2022-11-09T13:46:42;30.17;;;18.38;;
64816;SDS011;53289;45.602;11.904;2022-11-09T13:49:45;28.13;;;18.17;;
64816;SDS011;53289;45.602;11.904;2022-11-09T13:54:51;24.65;;;14.68;;
64816;SDS011;53289;45.602;11.904;2022-11-09T13:57:18;23.45;;;14.95;;
64816;SDS011;53289;45.602;11.904;2022-11-09T13:59:46;24.08;;;15.50;;
64816;SDS011;53289;45.602;11.904;2022-11-09T14:02:17;27.20;;;16.73;;
64816;SDS011;53289;45.602;11.904;2022-11-09T14:04:49;31.40;;;19.15;;
64816;SDS011;53289;45.602;11.904;2022-11-09T14:07:25;27.73;;;16.52;;
64816;SDS011;53289;45.602;11.904;2022-11-09T14:13:07;27.45;;;15.82;;
64816;SDS011;53289;45.602;11.904;2022-11-09T14:16:13;25.17;;;14.68;;
64816;SDS011;53289;45.602;11.904;2022-11-09T14:19:10;25.88;;;14.20;;
64816;SDS011;53289;45.602;11.904;2022-11-09T14:21:52;23.70;;;15.27;;
64816;SDS011;53289;45.602;11.904;2022-11-09T14:24:20;25.25;;;16.10;;
64816;SDS011;53289;45.602;11.904;2022-11-09T14:34:42;21.40;;;14.10;;
64816;SDS011;53289;45.602;11.904;2022-11-09T14:37:09;23.92;;;14.98;;
64816;SDS011;53289;45.602;11.904;2022-11-09T14:39:38;24.08;;;15.20;;
64816;SDS011;53289;45.602;11.904;2022-11-09T14:42:07;23.55;;;14.80;;
64816;SDS011;53289;45.602;11.904;2022-11-09T14:44:41;23.38;;;15.63;;
64816;SDS011;53289;45.602;11.904;2022-11-09T14:47:16;26.65;;;17.08;;
64816;SDS011;53289;45.602;11.904;2022-11-09T14:49:49;27.05;;;17.70;;
64816;SDS011;53289;45.602;11.904;2022-11-09T14:52:16;22.13;;;14.55;;
64816;SDS011;53289;45.602;11.904;2022-11-09T14:54:47;26.27;;;15.45;;
64816;SDS011;53289;45.602;11.904;2022-11-09T14:57:14;23.77;;;15.90;;
64816;SDS011;53289;45.602;11.904;2022-11-09T14:59:41;24.23;;;15.13;;
64816;SDS011;53289;45.602;11.904;2022-11-09T15:02:10;25.00;;;15.43;;
64816;SDS011;53289;45.602;11.904;2022-11-09T15:07:19;21.63;;;13.85;;
64816;SDS011;53289;45.602;11.904;2022-11-09T15:09:49;24.77;;;14.98;;
64816;SDS011;53289;45.602;11.904;2022-11-09T15:12:19;23.80;;;14.88;;
64816;SDS011;53289;45.602;11.904;2022-11-09T15:14:49;25.90;;;16.13;;
64816;SDS011;53289;45.602;11.904;2022-11-09T15:17:28;26.95;;;16.30;;
64816;SDS011;53289;45.602;11.904;2022-11-09T15:20:00;26.17;;;15.75;;
64816;SDS011;53289;45.602;11.904;2022-11-09T15:22:55;27.70;;;16.27;;
64816;SDS011;53289;45.602;11.904;2022-11-09T15:25:27;24.13;;;15.77;;
64816;SDS011;53289;45.602;11.904;2022-11-09T15:30:48;34.47;;;19.70;;
64816;SDS011;53289;45.602;11.904;2022-11-09T15:33:47;30.85;;;17.60;;
64816;SDS011;53289;45.602;11.904;2022-11-09T15:36:21;29.15;;;18.55;;
64816;SDS011;53289;45.602;11.904;2022-11-09T15:39:04;22.63;;;15.17;;
64816;SDS011;53289;45.602;11.904;2022-11-09T15:41:41;27.15;;;16.27;;
64816;SDS011;53289;45.602;11.904;2022-11-09T15:44:07;31.77;;;19.58;;
64816;SDS011;53289;45.602;11.904;2022-11-09T15:46:34;27.88;;;15.50;;
64816;SDS011;53289;45.602;11.904;2022-11-09T15:49:19;26.55;;;15.90;;
64816;SDS011;53289;45.602;11.904;2022-11-09T15:51:50;32.28;;;18.48;;
64816;SDS011;53289;45.602;11.904;2022-11-09T15:54:16;30.85;;;16.13;;
64816;SDS011;53289;45.602;11.904;2022-11-09T15:56:42;24.63;;;14.90;;
64816;SDS011;53289;45.602;11.904;2022-11-09T15:59:26;29.67;;;15.85;;
64816;SDS011;53289;45.602;11.904;2022-11-09T16:04:19;26.27;;;15.13;;
64816;SDS011;53289;45.602;11.904;2022-11-09T16:06:44;25.45;;;15.98;;
64816;SDS011;53289;45.602;11.904;2022-11-09T16:09:10;25.13;;;15.43;;
64816;SDS011;53289;45.602;11.904;2022-11-09T16:11:36;31.10;;;18.13;;
64816;SDS011;53289;45.602;11.904;2022-11-09T16:14:02;23.67;;;15.48;;